createdAt,value
2018-12-27T00:00:29.563Z,18.6
2018-12-27T00:01:19.035Z,18.6
2018-12-27T00:02:09.418Z,18.6
2018-12-27T00:02:59.685Z,18.6
2018-12-27T00:03:49.510Z,18.6
2018-12-27T00:04:39.289Z,18.6
2018-12-27T00:05:29.332Z,18.6
2018-12-27T00:06:18.855Z,18.6
2018-12-27T00:07:08.926Z,18.6
2018-12-27T00:07:59.814Z,18.6
2018-12-27T00:08:49.562Z,18.6
2018-12-27T00:09:39.364Z,18.6
2018-12-27T00:10:30.236Z,18.6
2018-12-27T00:11:19.177Z,18.6
2018-12-27T00:12:10.076Z,18.6
2018-12-27T00:13:00.131Z,18.6
2018-12-27T00:13:50.461Z,18.6
2018-12-27T00:14:40.241Z,18.6
2018-12-27T00:32:53.773Z,18.5
2018-12-27T00:33:44.132Z,18.6
2018-12-27T00:34:34.422Z,18.6
2018-12-27T00:35:23.898Z,18.6
2018-12-27T00:36:14.525Z,18.6
2018-12-27T00:37:04.582Z,18.6
2018-12-27T00:37:54.375Z,18.6
2018-12-27T00:38:44.665Z,18.6
2018-12-27T00:39:34.205Z,18.6
2018-12-27T00:40:24.595Z,18.6
2018-12-27T00:41:14.310Z,18.6
2018-12-27T00:42:04.102Z,18.6
2018-12-27T00:42:54.980Z,18.6
2018-12-27T00:43:45.007Z,18.5
2018-12-27T00:44:34.251Z,18.6
2018-12-27T00:45:24.865Z,18.5
2018-12-27T00:46:14.457Z,18.6
2018-12-27T00:47:04.710Z,18.6
2018-12-27T00:47:54.518Z,18.6
2018-12-27T00:48:45.097Z,18.5
2018-12-27T00:49:35.474Z,18.6
2018-12-27T00:50:24.655Z,18.5
2018-12-27T00:51:15.247Z,18.5
2018-12-27T00:52:05.596Z,18.5
2018-12-27T00:52:55.105Z,18.5
2018-12-27T00:53:45.965Z,18.5
2018-12-27T00:54:34.940Z,18.5
2018-12-27T00:55:25.557Z,18.5
2018-12-27T00:56:15.328Z,18.5
2018-12-27T00:57:05.683Z,18.5
2018-12-27T00:57:56.086Z,18.5
2018-12-27T00:58:46.279Z,18.5
2018-12-27T00:59:36.126Z,18.5
2018-12-27T01:00:25.686Z,18.5
2018-12-27T01:01:15.954Z,18.5
2018-12-27T01:02:06.304Z,18.5
2018-12-27T01:02:55.791Z,18.5
2018-12-27T01:03:46.648Z,18.5
2018-12-27T01:04:36.167Z,18.5
2018-12-27T01:05:25.401Z,18.5
2018-12-27T01:06:16.407Z,18.6
2018-12-27T01:07:06.101Z,18.5
2018-12-27T01:07:56.427Z,18.5
2018-12-27T01:08:47.053Z,18.5
2018-12-27T01:09:51.466Z,18.5
2018-12-27T01:10:26.573Z,18.5
2018-12-27T01:11:16.636Z,18.5
2018-12-27T01:12:07.013Z,18.5
2018-12-27T01:12:56.758Z,18.5
2018-12-27T01:13:46.618Z,18.5
2018-12-27T01:14:36.848Z,18.5
2018-12-27T01:15:26.903Z,18.5
2018-12-27T01:16:16.785Z,18.5
2018-12-27T01:17:06.515Z,18.5
2018-12-27T01:17:56.815Z,18.5
2018-12-27T01:18:47.423Z,18.5
2018-12-27T01:19:36.400Z,18.5
2018-12-27T01:20:27.570Z,18.5
2018-12-27T01:21:17.323Z,18.5
2018-12-27T01:22:07.392Z,18.5
2018-12-27T01:22:57.197Z,18.5
2018-12-27T01:23:48.082Z,18.5
2018-12-27T01:24:37.015Z,18.5
2018-12-27T01:25:27.857Z,18.5
2018-12-27T01:26:18.032Z,18.5
2018-12-27T01:27:08.007Z,18.5
2018-12-27T01:27:58.062Z,18.5
2018-12-27T01:28:47.680Z,18.5
2018-12-27T01:29:38.259Z,18.5
2018-12-27T01:30:27.399Z,18.5
2018-12-27T01:31:18.274Z,18.5
2018-12-27T01:32:07.526Z,18.6
2018-12-27T01:32:58.411Z,18.5
2018-12-27T01:33:48.514Z,18.5
2018-12-27T01:34:38.217Z,18.5
2018-12-27T01:35:28.066Z,18.5
2018-12-27T01:36:18.461Z,18.5
2018-12-27T01:37:08.159Z,18.5
2018-12-27T01:37:57.640Z,18.5
2018-12-27T01:38:48.821Z,18.5
2018-12-27T01:39:38.373Z,18.5
2018-12-27T01:40:28.381Z,18.5
2018-12-27T01:41:18.446Z,18.5
2018-12-27T01:42:08.486Z,18.5
2018-12-27T01:42:58.823Z,18.5
2018-12-27T01:43:49.126Z,18.5
2018-12-27T01:44:38.661Z,18.5
2018-12-27T01:45:29.001Z,18.5
2018-12-27T01:46:19.326Z,18.5
2018-12-27T01:47:09.098Z,18.5
2018-12-27T01:47:58.901Z,18.5
2018-12-27T01:48:48.930Z,18.5
2018-12-27T01:49:39.541Z,18.5
2018-12-27T01:50:29.393Z,18.5
2018-12-27T01:51:19.384Z,18.5
2018-12-27T01:52:08.593Z,18.5
2018-12-27T01:52:58.958Z,18.5
2018-12-27T01:53:49.315Z,18.5
2018-12-27T01:54:39.626Z,18.5
2018-12-27T01:55:29.135Z,18.5
2018-12-27T01:56:19.727Z,18.5
2018-12-27T01:57:09.555Z,18.5
2018-12-27T01:57:59.838Z,18.5
2018-12-27T01:58:49.630Z,18.5
2018-12-27T01:59:39.685Z,18.5
2018-12-27T02:00:29.730Z,18.5
2018-12-27T02:01:20.343Z,18.5
2018-12-27T02:02:10.380Z,18.5
2018-12-27T02:03:00.463Z,18.5
2018-12-27T02:03:50.228Z,18.5
2018-12-27T02:04:40.637Z,18.4
2018-12-27T02:05:30.633Z,18.5
2018-12-27T02:06:20.397Z,18.5
2018-12-27T02:07:10.737Z,18.5
2018-12-27T02:08:00.802Z,18.5
2018-12-27T02:08:50.562Z,18.5
2018-12-27T02:09:40.912Z,18.5
2018-12-27T02:10:30.497Z,18.5
2018-12-27T02:11:21.029Z,18.5
2018-12-27T02:12:11.427Z,18.5
2018-12-27T02:13:01.136Z,18.5
2018-12-27T02:13:50.631Z,18.5
2018-12-27T02:14:40.981Z,18.5
2018-12-27T02:15:31.041Z,18.5
2018-12-27T02:16:21.096Z,18.5
2018-12-27T02:17:11.163Z,18.5
2018-12-27T02:18:01.564Z,18.5
2018-12-27T02:18:51.284Z,18.4
2018-12-27T02:19:41.301Z,18.5
2018-12-27T02:20:31.386Z,18.5
2018-12-27T02:21:21.704Z,18.5
2018-12-27T02:22:11.221Z,18.4
2018-12-27T02:23:01.546Z,18.5
2018-12-27T02:23:51.336Z,18.5
2018-12-27T02:24:41.673Z,18.5
2018-12-27T02:25:31.456Z,18.5
2018-12-27T02:26:22.039Z,18.5
2018-12-27T02:27:12.108Z,18.5
2018-12-27T02:28:01.623Z,18.5
2018-12-27T02:28:51.411Z,18.5
2018-12-27T02:29:42.008Z,18.5
2018-12-27T02:30:32.375Z,18.5
2018-12-27T02:31:22.233Z,18.5
2018-12-27T02:32:12.496Z,18.5
2018-12-27T02:33:02.248Z,18.5
2018-12-27T02:33:52.559Z,18.5
2018-12-27T02:34:42.624Z,18.5
2018-12-27T02:35:32.696Z,18.4
2018-12-27T02:36:22.198Z,18.5
2018-12-27T02:37:12.569Z,18.4
2018-12-27T02:38:02.378Z,18.5
2018-12-27T02:38:52.657Z,18.4
2018-12-27T02:39:43.915Z,18.5
2018-12-27T02:40:33.032Z,18.5
2018-12-27T02:41:22.575Z,18.5
2018-12-27T02:42:12.901Z,18.4
2018-12-27T02:43:02.930Z,18.4
2018-12-27T02:43:53.265Z,18.4
2018-12-27T02:44:42.507Z,18.5
2018-12-27T02:45:33.097Z,18.5
2018-12-27T02:46:22.889Z,18.4
2018-12-27T02:47:13.242Z,18.5
2018-12-27T02:48:03.324Z,18.5
2018-12-27T02:48:53.329Z,18.5
2018-12-27T02:49:43.377Z,18.5
2018-12-27T02:50:33.486Z,18.5
2018-12-27T02:51:23.239Z,18.5
2018-12-27T02:52:13.572Z,18.5
2018-12-27T02:53:03.060Z,18.5
2018-12-27T02:53:53.411Z,18.5
2018-12-27T02:54:44.001Z,18.5
2018-12-27T02:55:34.057Z,18.5
2018-12-27T02:56:24.115Z,18.5
2018-12-27T02:57:13.901Z,18.5
2018-12-27T02:58:03.684Z,18.5
2018-12-27T02:58:53.460Z,18.5
2018-12-27T02:59:43.872Z,18.5
2018-12-27T03:00:34.140Z,18.5
2018-12-27T03:01:23.156Z,18.5
2018-12-27T03:02:14.230Z,18.5
2018-12-27T03:03:04.554Z,18.5
2018-12-27T03:03:54.959Z,18.5
2018-12-27T03:04:44.707Z,18.5
2018-12-27T03:05:34.438Z,18.6
2018-12-27T03:06:24.261Z,18.6
2018-12-27T03:07:14.874Z,18.6
2018-12-27T03:08:04.642Z,18.6
2018-12-27T03:08:54.704Z,18.6
2018-12-27T03:09:45.071Z,18.6
2018-12-27T03:10:35.061Z,18.6
2018-12-27T03:11:24.331Z,18.6
2018-12-27T03:12:14.971Z,18.6
2018-12-27T03:13:04.195Z,18.6
2018-12-27T03:13:54.519Z,18.6
2018-12-27T03:14:44.917Z,18.6
2018-12-27T03:15:34.921Z,18.6
2018-12-27T03:16:25.495Z,18.6
2018-12-27T03:17:15.430Z,18.6
2018-12-27T03:18:04.867Z,18.6
2018-12-27T03:18:55.163Z,18.6
2018-12-27T03:19:45.269Z,18.6
2018-12-27T03:20:35.150Z,18.6
2018-12-27T03:21:25.118Z,18.6
2018-12-27T03:22:15.123Z,18.6
2018-12-27T03:23:05.400Z,18.6
2018-12-27T03:23:55.475Z,18.6
2018-12-27T03:24:45.300Z,18.6
2018-12-27T03:25:34.812Z,18.6
2018-12-27T03:26:25.811Z,18.6
2018-12-27T03:28:05.830Z,18.6
2018-12-27T03:31:25.984Z,18.6
2018-12-27T03:33:06.258Z,18.6
2018-12-27T03:33:56.193Z,18.6
2018-12-27T03:37:16.312Z,18.6
2018-12-27T03:41:26.714Z,18.8
2018-12-27T03:48:06.910Z,18.8
2018-12-27T03:48:57.224Z,18.8
2018-12-27T03:52:17.189Z,18.8
2018-12-27T03:56:27.278Z,18.8
2018-12-27T04:03:08.458Z,18.8
2018-12-27T04:04:03.909Z,18.8
2018-12-27T04:04:48.316Z,18.8
2018-12-27T04:06:27.904Z,18.8
2018-12-27T04:07:18.715Z,18.8
2018-12-27T04:08:08.870Z,18.8
2018-12-27T04:08:58.058Z,18.8
2018-12-27T04:09:48.469Z,18.8
2018-12-27T04:10:38.711Z,18.8
2018-12-27T04:12:19.325Z,18.8
2018-12-27T04:13:08.814Z,18.8
2018-12-27T04:14:48.665Z,18.8
2018-12-27T04:16:29.328Z,18.8
2018-12-27T04:17:19.790Z,18.8
2018-12-27T04:18:09.462Z,18.8
2018-12-27T04:18:59.757Z,18.8
2018-12-27T04:19:49.557Z,18.8
2018-12-27T04:20:39.617Z,18.8
2018-12-27T04:21:29.680Z,18.8
2018-12-27T04:23:09.530Z,18.8
2018-12-27T04:23:59.577Z,18.8
2018-12-27T04:25:39.681Z,18.8
2018-12-27T04:26:29.456Z,18.8
2018-12-27T04:27:20.037Z,18.8
2018-12-27T04:28:09.857Z,18.8
2018-12-27T04:28:59.622Z,18.8
2018-12-27T04:29:49.984Z,18.8
2018-12-27T04:30:40.322Z,18.8
2018-12-27T04:31:30.079Z,18.8
2018-12-27T04:32:20.150Z,18.8
2018-12-27T04:33:10.734Z,18.8
2018-12-27T04:34:00.517Z,18.8
2018-12-27T04:34:50.607Z,18.8
2018-12-27T04:35:40.940Z,18.8
2018-12-27T04:36:30.691Z,18.8
2018-12-27T04:37:21.048Z,18.8
2018-12-27T04:38:10.269Z,18.8
2018-12-27T04:39:00.856Z,18.8
2018-12-27T04:39:50.644Z,18.8
2018-12-27T04:40:41.851Z,18.8
2018-12-27T04:41:31.159Z,18.8
2018-12-27T04:42:21.402Z,18.8
2018-12-27T04:43:11.439Z,18.8
2018-12-27T04:44:01.551Z,18.8
2018-12-27T04:44:51.544Z,18.8
2018-12-27T05:02:09.811Z,18.8
2018-12-27T05:03:00.260Z,18.8
2018-12-27T05:03:50.112Z,18.8
2018-12-27T05:04:40.397Z,18.8
2018-12-27T05:05:30.450Z,18.8
2018-12-27T05:06:19.964Z,18.8
2018-12-27T05:07:10.357Z,18.8
2018-12-27T05:08:02.175Z,18.8
2018-12-27T05:08:50.523Z,18.8
2018-12-27T05:09:40.437Z,18.8
2018-12-27T05:10:30.287Z,18.8
2018-12-27T05:11:20.982Z,18.8
2018-12-27T05:12:10.084Z,18.8
2018-12-27T05:13:00.726Z,18.8
2018-12-27T05:13:50.716Z,18.8
2018-12-27T05:14:41.090Z,18.8
2018-12-27T05:15:30.902Z,18.8
2018-12-27T05:16:20.350Z,18.8
2018-12-27T05:17:10.972Z,18.8
2018-12-27T05:18:01.299Z,18.8
2018-12-27T05:18:51.174Z,18.8
2018-12-27T05:19:40.863Z,18.8
2018-12-27T05:20:30.996Z,18.8
2018-12-27T05:21:20.997Z,18.8
2018-12-27T05:22:10.753Z,18.8
2018-12-27T05:23:01.925Z,18.8
2018-12-27T05:23:50.973Z,18.8
2018-12-27T05:24:41.478Z,18.8
2018-12-27T05:25:31.004Z,18.8
2018-12-27T05:26:21.587Z,18.8
2018-12-27T05:27:11.665Z,18.8
2018-12-27T05:28:01.712Z,18.8
2018-12-27T05:28:52.116Z,18.8
2018-12-27T05:29:41.255Z,18.8
2018-12-27T05:30:31.118Z,18.8
2018-12-27T05:31:21.105Z,18.8
2018-12-27T05:32:12.242Z,18.8
2018-12-27T05:33:02.104Z,18.9
2018-12-27T05:33:52.382Z,18.9
2018-12-27T05:34:42.442Z,18.8
2018-12-27T05:35:32.207Z,18.8
2018-12-27T05:36:21.755Z,18.8
2018-12-27T05:37:12.682Z,18.9
2018-12-27T05:38:02.380Z,18.9
2018-12-27T05:38:52.452Z,18.8
2018-12-27T05:39:42.487Z,18.8
2018-12-27T05:40:32.547Z,18.8
2018-12-27T05:41:22.602Z,18.9
2018-12-27T05:42:12.649Z,18.8
2018-12-27T05:43:03.305Z,18.9
2018-12-27T05:43:53.064Z,18.9
2018-12-27T05:44:43.110Z,18.8
2018-12-27T05:45:32.607Z,18.9
2018-12-27T05:46:22.384Z,18.9
2018-12-27T05:47:13.271Z,18.9
2018-12-27T05:48:03.321Z,18.8
2018-12-27T05:48:53.119Z,18.9
2018-12-27T05:49:42.904Z,18.9
2018-12-27T05:50:33.506Z,18.9
2018-12-27T05:51:23.565Z,18.9
2018-12-27T05:52:13.072Z,18.9
2018-12-27T05:53:02.848Z,18.9
2018-12-27T05:53:53.166Z,18.9
2018-12-27T05:54:43.218Z,18.9
2018-12-27T05:55:37.187Z,18.9
2018-12-27T05:56:23.073Z,18.9
2018-12-27T05:57:13.973Z,18.9
2018-12-27T05:58:04.002Z,18.9
2018-12-27T05:58:53.511Z,18.9
2018-12-27T05:59:44.156Z,18.9
2018-12-27T06:00:33.931Z,18.9
2018-12-27T06:01:23.976Z,18.9
2018-12-27T06:02:13.736Z,18.9
2018-12-27T06:03:04.358Z,18.9
2018-12-27T06:03:54.129Z,18.9
2018-12-27T06:04:43.928Z,18.9
2018-12-27T06:05:34.230Z,18.9
2018-12-27T06:06:24.298Z,18.9
2018-12-27T06:07:14.640Z,18.9
2018-12-27T06:08:04.163Z,18.9
2018-12-27T06:08:54.473Z,18.9
2018-12-27T06:09:44.538Z,18.9
2018-12-27T06:10:34.600Z,18.9
2018-12-27T06:11:24.915Z,18.9
2018-12-27T06:12:14.980Z,18.9
2018-12-27T06:13:04.486Z,18.9
2018-12-27T06:13:54.805Z,18.9
2018-12-27T06:14:44.295Z,18.9
2018-12-27T06:15:34.962Z,18.9
2018-12-27T06:16:24.785Z,18.9
2018-12-27T06:17:14.477Z,19
2018-12-27T06:18:04.810Z,18.9
2018-12-27T06:18:55.112Z,18.9
2018-12-27T06:19:44.992Z,18.9
2018-12-27T06:20:35.507Z,18.9
2018-12-27T06:21:25.035Z,19
2018-12-27T06:22:15.432Z,19
2018-12-27T06:23:05.789Z,19
2018-12-27T06:23:56.036Z,19
2018-12-27T06:24:45.524Z,19
2018-12-27T06:25:35.918Z,19
2018-12-27T06:26:25.937Z,19
2018-12-27T06:27:15.495Z,18.9
2018-12-27T06:28:05.487Z,19
2018-12-27T06:28:56.079Z,19
2018-12-27T06:29:46.234Z,19
2018-12-27T06:30:36.254Z,19
2018-12-27T06:31:25.992Z,19
2018-12-27T06:32:16.391Z,19
2018-12-27T06:33:06.409Z,19
2018-12-27T06:33:55.939Z,19
2018-12-27T06:34:46.222Z,19
2018-12-27T06:35:36.565Z,19
2018-12-27T06:36:25.822Z,19
2018-12-27T06:37:16.936Z,19
2018-12-27T06:38:06.461Z,19
2018-12-27T06:38:56.524Z,19
2018-12-27T06:39:46.558Z,19
2018-12-27T06:40:36.594Z,19
2018-12-27T06:41:26.676Z,19
2018-12-27T06:42:16.261Z,19
2018-12-27T06:43:06.517Z,19
2018-12-27T06:43:56.861Z,19
2018-12-27T06:44:47.179Z,19
2018-12-27T06:45:37.273Z,19
2018-12-27T06:46:27.001Z,19
2018-12-27T06:47:17.354Z,19
2018-12-27T06:48:06.846Z,19
2018-12-27T06:48:57.461Z,19.1
2018-12-27T06:49:46.966Z,19
2018-12-27T06:50:37.261Z,19
2018-12-27T06:51:27.086Z,19
2018-12-27T06:52:17.136Z,19.1
2018-12-27T06:53:07.226Z,19.1
2018-12-27T06:53:57.578Z,19.1
2018-12-27T06:54:48.462Z,19.1
2018-12-27T06:55:37.616Z,19.1
2018-12-27T06:56:27.968Z,19.1
2018-12-27T06:57:17.743Z,19.1
2018-12-27T06:58:07.256Z,19.1
2018-12-27T06:58:57.868Z,19.1
2018-12-27T06:59:47.957Z,19.1
2018-12-27T07:00:38.487Z,19.1
2018-12-27T07:01:28.300Z,19.1
2018-12-27T07:02:17.831Z,19.1
2018-12-27T07:03:08.432Z,19.1
2018-12-27T07:03:58.195Z,19.1
2018-12-27T07:04:52.385Z,19.1
2018-12-27T07:05:38.595Z,19.1
2018-12-27T07:06:28.392Z,19.1
2018-12-27T07:07:18.425Z,19.1
2018-12-27T07:08:08.554Z,19.1
2018-12-27T07:08:58.551Z,19.1
2018-12-27T07:09:48.055Z,19.1
2018-12-27T07:10:38.932Z,19.1
2018-12-27T07:11:28.208Z,19.1
2018-12-27T07:12:18.219Z,19.1
2018-12-27T07:13:08.836Z,19.1
2018-12-27T07:13:58.328Z,19.1
2018-12-27T07:14:48.646Z,19.1
2018-12-27T07:15:39.387Z,19.1
2018-12-27T07:16:28.798Z,19.1
2018-12-27T07:17:18.845Z,19.1
2018-12-27T07:18:08.899Z,19.1
2018-12-27T07:19:01.251Z,19.1
2018-12-27T07:19:48.993Z,19.1
2018-12-27T07:20:39.623Z,19.2
2018-12-27T07:21:29.115Z,19.1
2018-12-27T07:22:19.443Z,19.1
2018-12-27T07:23:09.530Z,19.1
2018-12-27T07:23:59.280Z,19.1
2018-12-27T07:24:49.335Z,19.1
2018-12-27T07:25:39.682Z,19.2
2018-12-27T07:26:29.438Z,19.1
2018-12-27T07:27:19.223Z,19.1
2018-12-27T07:28:09.596Z,19.1
2018-12-27T07:29:00.207Z,19.1
2018-12-27T07:29:49.407Z,19.1
2018-12-27T07:30:40.297Z,19.1
2018-12-27T07:31:29.902Z,19.1
2018-12-27T07:32:20.122Z,19.1
2018-12-27T07:33:09.626Z,19.1
2018-12-27T07:34:00.219Z,19.1
2018-12-27T07:34:57.947Z,19.1
2018-12-27T07:35:40.077Z,19.1
2018-12-27T07:36:30.122Z,19.2
2018-12-27T07:37:20.749Z,19.1
2018-12-27T07:38:10.784Z,19.1
2018-12-27T07:39:00.852Z,19.1
2018-12-27T07:39:50.904Z,19.1
2018-12-27T07:40:41.006Z,19.1
2018-12-27T07:41:30.714Z,19.2
2018-12-27T07:42:20.793Z,19.1
2018-12-27T07:43:10.847Z,19.1
2018-12-27T07:44:01.494Z,19.1
2018-12-27T07:44:50.956Z,19.1
2018-12-27T07:45:40.484Z,19.1
2018-12-27T07:46:30.846Z,19.1
2018-12-27T07:47:20.586Z,19.1
2018-12-27T07:48:11.466Z,19.1
2018-12-27T07:49:01.526Z,19.1
2018-12-27T07:49:51.286Z,19.1
2018-12-27T07:50:41.352Z,19.1
2018-12-27T07:51:31.698Z,19.1
2018-12-27T07:52:21.824Z,19.1
2018-12-27T07:53:11.514Z,19.1
2018-12-27T07:54:02.116Z,19.2
2018-12-27T07:54:51.626Z,19.1
2018-12-27T07:55:41.421Z,19.1
2018-12-27T07:56:32.025Z,19.1
2018-12-27T07:57:22.384Z,19.1
2018-12-27T07:58:12.131Z,19.1
2018-12-27T07:59:01.933Z,19.1
2018-12-27T07:59:51.964Z,19.1
2018-12-27T08:00:42.072Z,19.2
2018-12-27T08:01:32.078Z,19.2
2018-12-27T08:02:21.570Z,19.2
2018-12-27T08:03:12.188Z,19.2
2018-12-27T08:04:01.975Z,19.2
2018-12-27T08:04:52.615Z,19.2
2018-12-27T08:05:41.539Z,19.2
2018-12-27T08:06:32.428Z,19.2
2018-12-27T08:07:22.318Z,19.2
2018-12-27T08:08:12.537Z,19.2
2018-12-27T08:09:02.040Z,19.2
2018-12-27T08:09:52.660Z,19.2
2018-12-27T08:10:42.203Z,19.2
2018-12-27T08:11:32.470Z,19.2
2018-12-27T08:12:23.142Z,19.2
2018-12-27T08:13:12.867Z,19.2
2018-12-27T08:14:02.682Z,19.2
2018-12-27T08:14:53.285Z,19.2
2018-12-27T08:15:43.337Z,19.2
2018-12-27T08:16:33.365Z,19.2
2018-12-27T08:17:23.424Z,19.2
2018-12-27T08:18:13.194Z,19.2
2018-12-27T08:19:03.549Z,19.2
2018-12-27T08:19:53.639Z,19.2
2018-12-27T08:20:42.842Z,19.2
2018-12-27T08:21:33.424Z,19.2
2018-12-27T08:22:23.770Z,19.2
2018-12-27T08:23:13.296Z,19.2
2018-12-27T08:24:03.661Z,19.2
2018-12-27T08:24:53.931Z,19.2
2018-12-27T08:25:43.721Z,19.2
2018-12-27T08:26:34.082Z,19.2
2018-12-27T08:27:23.594Z,19.2
2018-12-27T08:28:13.333Z,19.2
2018-12-27T08:29:03.959Z,19.2
2018-12-27T08:29:53.994Z,19.2
2018-12-27T08:30:44.321Z,19.2
2018-12-27T08:31:34.381Z,19.2
2018-12-27T08:32:24.156Z,19.2
2018-12-27T08:33:13.658Z,19.2
2018-12-27T08:34:04.323Z,19.2
2018-12-27T08:34:53.777Z,19.2
2018-12-27T08:35:44.391Z,19.2
2018-12-27T08:36:34.713Z,19.2
2018-12-27T08:37:24.770Z,19.2
2018-12-27T08:38:14.883Z,19.2
2018-12-27T08:39:04.621Z,19.2
2018-12-27T08:39:54.667Z,19.1
2018-12-27T08:40:44.710Z,19.2
2018-12-27T08:41:34.259Z,19.2
2018-12-27T08:42:25.121Z,19.2
2018-12-27T08:43:15.221Z,19.2
2018-12-27T08:44:04.387Z,19.2
2018-12-27T08:44:54.715Z,19.2
2018-12-27T08:45:45.065Z,19.1
2018-12-27T08:46:35.128Z,19.2
2018-12-27T08:47:27.175Z,19.2
2018-12-27T08:48:14.400Z,19.1
2018-12-27T08:49:05.285Z,19.1
2018-12-27T08:49:55.062Z,19.2
2018-12-27T08:50:45.112Z,19.2
2018-12-27T08:51:35.447Z,19.2
2018-12-27T08:52:24.467Z,19.2
2018-12-27T08:53:15.320Z,19.1
2018-12-27T08:54:05.885Z,19.1
2018-12-27T08:54:55.947Z,19.1
2018-12-27T08:55:45.770Z,19.2
2018-12-27T08:56:36.042Z,19.1
2018-12-27T08:57:26.127Z,19.1
2018-12-27T08:58:16.168Z,19.1
2018-12-27T08:59:06.232Z,19.2
2018-12-27T08:59:55.744Z,19.1
2018-12-27T09:00:45.749Z,19.1
2018-12-27T09:16:33.668Z,19.1
2018-12-27T09:17:23.175Z,19.1
2018-12-27T09:18:13.322Z,19.1
2018-12-27T09:19:03.867Z,19.1
2018-12-27T09:19:53.585Z,19.1
2018-12-27T09:20:43.980Z,19.1
2018-12-27T09:21:32.925Z,19.1
2018-12-27T09:22:23.550Z,19.1
2018-12-27T09:23:13.596Z,19.1
2018-12-27T09:24:04.153Z,19.1
2018-12-27T09:24:53.365Z,19.1
2018-12-27T09:25:46.188Z,19.1
2018-12-27T09:26:34.008Z,19.1
2018-12-27T09:27:24.107Z,19.1
2018-12-27T09:28:13.867Z,19.1
2018-12-27T09:29:04.497Z,19.1
2018-12-27T09:29:53.975Z,19.1
2018-12-27T09:30:43.607Z,19.1
2018-12-27T09:31:34.382Z,19.1
2018-12-27T09:32:24.720Z,19.1
2018-12-27T09:33:14.509Z,19.1
2018-12-27T09:34:04.613Z,19.1
2018-12-27T09:34:54.409Z,19.1
2018-12-27T09:35:43.922Z,19.1
2018-12-27T09:36:34.989Z,19.1
2018-12-27T09:37:24.514Z,19.1
2018-12-27T09:38:14.281Z,19.1
2018-12-27T09:39:04.883Z,19.1
2018-12-27T09:39:54.736Z,19.1
2018-12-27T09:40:44.474Z,19.1
2018-12-27T09:41:35.097Z,19.1
2018-12-27T09:42:24.620Z,19.1
2018-12-27T09:43:14.404Z,19.1
2018-12-27T09:44:05.226Z,19.1
2018-12-27T09:44:55.558Z,19.1
2018-12-27T09:45:45.121Z,19.1
2018-12-27T09:46:35.188Z,19.1
2018-12-27T09:47:25.444Z,19.1
2018-12-27T09:48:14.748Z,19.1
2018-12-27T09:49:05.087Z,19.1
2018-12-27T09:49:55.125Z,19.1
2018-12-27T09:50:45.486Z,19.1
2018-12-27T09:51:36.002Z,19.1
2018-12-27T09:52:25.608Z,19.1
2018-12-27T09:53:15.353Z,19.1
2018-12-27T09:54:05.420Z,19.1
2018-12-27T09:54:54.958Z,19.1
2018-12-27T09:55:45.558Z,19.1
2018-12-27T09:56:35.860Z,19.1
2018-12-27T09:57:25.845Z,19.1
2018-12-27T09:58:15.970Z,19.1
2018-12-27T09:59:05.217Z,19.1
2018-12-27T09:59:55.819Z,19.1
2018-12-27T10:00:46.170Z,19.1
2018-12-27T10:01:36.290Z,19.1
2018-12-27T10:02:26.184Z,19.1
2018-12-27T10:03:16.057Z,19.1
2018-12-27T10:04:06.087Z,19.1
2018-12-27T10:04:56.437Z,19.1
2018-12-27T10:05:45.923Z,19.1
2018-12-27T10:06:36.280Z,19.1
2018-12-27T10:07:26.326Z,19.1
2018-12-27T10:08:16.102Z,19.1
2018-12-27T10:09:06.167Z,19.1
2018-12-27T10:09:56.510Z,19
2018-12-27T10:10:47.042Z,19.1
2018-12-27T10:11:36.679Z,19.1
2018-12-27T10:12:27.135Z,19.1
2018-12-27T10:13:17.190Z,19.1
2018-12-27T10:14:07.539Z,19.1
2018-12-27T10:14:57.112Z,19.1
2018-12-27T10:15:46.612Z,19.1
2018-12-27T10:16:37.426Z,19.1
2018-12-27T10:17:27.767Z,19.1
2018-12-27T10:18:17.561Z,19.1
2018-12-27T10:19:07.611Z,19.1
2018-12-27T10:19:57.660Z,19.1
2018-12-27T10:20:47.726Z,19.1
2018-12-27T10:21:37.762Z,19.1
2018-12-27T10:22:27.621Z,19.1
2018-12-27T10:23:18.143Z,19.1
2018-12-27T10:24:07.477Z,19.1
2018-12-27T10:24:58.271Z,19.1
2018-12-27T10:25:48.314Z,19.1
2018-12-27T10:26:38.138Z,19.1
2018-12-27T10:27:28.182Z,19.1
2018-12-27T10:28:18.064Z,19.1
2018-12-27T10:29:08.346Z,19.1
2018-12-27T10:29:58.063Z,19.1
2018-12-27T10:30:48.123Z,19.1
2018-12-27T10:31:38.173Z,19.1
2018-12-27T10:32:28.773Z,19.1
2018-12-27T10:33:18.585Z,19.1
2018-12-27T10:34:08.611Z,19.1
2018-12-27T10:34:58.973Z,19.1
2018-12-27T10:35:49.267Z,19.1
2018-12-27T10:36:38.770Z,19.1
2018-12-27T10:37:29.116Z,19.1
2018-12-27T10:38:19.433Z,19.1
2018-12-27T10:39:08.968Z,19.1
2018-12-27T10:39:59.003Z,19.1
2018-12-27T10:40:49.071Z,19.1
2018-12-27T10:41:39.118Z,19.1
2018-12-27T10:42:29.160Z,19.1
2018-12-27T10:43:19.213Z,19.1
2018-12-27T10:44:09.295Z,19.1
2018-12-27T10:44:59.060Z,19.1
2018-12-27T10:45:49.122Z,19.1
2018-12-27T10:46:39.473Z,19.1
2018-12-27T10:47:29.656Z,19.1
2018-12-27T10:48:19.848Z,19.1
2018-12-27T10:49:09.955Z,19.1
2018-12-27T10:49:59.700Z,19.1
2018-12-27T10:50:49.185Z,19.1
2018-12-27T10:51:39.812Z,19.1
2018-12-27T10:52:30.498Z,19.1
2018-12-27T10:53:19.635Z,19.1
2018-12-27T10:54:10.474Z,19.1
2018-12-27T10:55:00.277Z,19.1
2018-12-27T10:55:50.094Z,19.1
2018-12-27T10:56:40.137Z,19.1
2018-12-27T10:57:29.877Z,19.1
2018-12-27T10:58:19.959Z,19.1
2018-12-27T10:59:10.124Z,19.1
2018-12-27T11:00:00.646Z,19.1
2018-12-27T11:00:50.685Z,19.1
2018-12-27T11:01:40.455Z,19.1
2018-12-27T11:02:31.099Z,19.1
2018-12-27T11:03:20.566Z,19.1
2018-12-27T11:04:10.707Z,19.1
2018-12-27T11:05:00.971Z,19.1
2018-12-27T11:05:51.208Z,19.1
2018-12-27T11:06:41.089Z,19.1
2018-12-27T11:07:30.899Z,19.1
2018-12-27T11:08:20.344Z,19.1
2018-12-27T11:09:10.747Z,19.1
2018-12-27T11:10:01.154Z,19.1
2018-12-27T11:10:50.811Z,19.1
2018-12-27T11:11:40.864Z,19.1
2018-12-27T11:12:31.471Z,19.1
2018-12-27T11:13:21.256Z,19.1
2018-12-27T11:14:11.358Z,19.1
2018-12-27T11:15:01.702Z,19.1
2018-12-27T11:15:51.693Z,19.1
2018-12-27T11:16:41.492Z,19.1
2018-12-27T11:17:31.525Z,19.1
2018-12-27T11:18:21.867Z,19.1
2018-12-27T11:19:11.396Z,19.1
2018-12-27T11:20:01.717Z,19.1
2018-12-27T11:20:52.062Z,19.1
2018-12-27T11:21:42.082Z,19.1
2018-12-27T11:22:32.152Z,19.1
2018-12-27T11:23:22.207Z,19.1
2018-12-27T11:24:11.714Z,19.1
2018-12-27T11:25:02.042Z,19.1
2018-12-27T11:25:52.114Z,19.1
2018-12-27T11:26:42.677Z,19.1
2018-12-27T11:27:32.212Z,19.1
2018-12-27T11:28:21.967Z,19.1
2018-12-27T11:29:12.325Z,19.1
2018-12-27T11:30:02.412Z,19.1
2018-12-27T11:30:52.159Z,19.1
2018-12-27T11:31:42.764Z,19.1
2018-12-27T11:32:32.549Z,19.1
2018-12-27T11:33:22.085Z,19.1
2018-12-27T11:34:12.411Z,19.1
2018-12-27T11:35:02.830Z,19.1
2018-12-27T11:35:59.283Z,19.1
2018-12-27T11:36:42.823Z,19.1
2018-12-27T11:37:32.926Z,19.1
2018-12-27T11:38:22.947Z,19.1
2018-12-27T11:39:12.159Z,19.1
2018-12-27T11:40:03.069Z,19.1
2018-12-27T11:40:53.055Z,19.1
2018-12-27T11:41:42.895Z,19.1
2018-12-27T11:42:33.476Z,19.1
2018-12-27T11:43:23.276Z,19.1
2018-12-27T11:44:12.767Z,19.1
2018-12-27T11:45:03.656Z,19.1
2018-12-27T11:45:53.970Z,19.1
2018-12-27T11:46:43.228Z,19.1
2018-12-27T11:47:33.844Z,19.1
2018-12-27T11:48:23.630Z,19.1
2018-12-27T11:49:13.415Z,19.1
2018-12-27T11:50:37.433Z,19.1
2018-12-27T11:51:26.750Z,19.1
2018-12-27T11:52:17.560Z,19.1
2018-12-27T11:53:07.340Z,19.1
2018-12-27T11:53:57.655Z,19.1
2018-12-27T11:54:47.480Z,19.1
2018-12-27T11:55:37.507Z,19.1
2018-12-27T11:56:27.292Z,19.1
2018-12-27T11:57:17.325Z,19.1
2018-12-27T11:58:07.672Z,19.1
2018-12-27T11:58:57.460Z,19.1
2018-12-27T11:59:47.509Z,19.1
2018-12-27T12:00:37.852Z,19.1
2018-12-27T12:01:27.902Z,19.1
2018-12-27T12:02:17.962Z,19.1
2018-12-27T12:03:07.193Z,19.1
2018-12-27T12:03:57.794Z,19.1
2018-12-27T12:04:48.112Z,19.1
2018-12-27T12:05:37.406Z,19.1
2018-12-27T12:06:27.952Z,19.1
2018-12-27T12:07:18.566Z,19.1
2018-12-27T12:08:08.351Z,19.1
2018-12-27T12:08:58.406Z,19.1
2018-12-27T12:09:47.981Z,19.1
2018-12-27T12:11:29.556Z,19.1
2018-12-27T12:12:19.626Z,19.1
2018-12-27T12:13:09.956Z,19.1
2018-12-27T12:13:59.443Z,19.1
2018-12-27T12:14:49.514Z,19.1
2018-12-27T12:15:40.173Z,19.1
2018-12-27T12:16:29.664Z,19.1
2018-12-27T12:17:19.700Z,19.1
2018-12-27T12:18:10.023Z,19.1
2018-12-27T12:18:59.523Z,19.1
2018-12-27T12:19:49.854Z,19.1
2018-12-27T12:20:40.460Z,19.1
2018-12-27T12:21:30.253Z,19.1
2018-12-27T12:22:20.639Z,19.1
2018-12-27T12:23:10.085Z,19.1
2018-12-27T12:24:00.398Z,19.1
2018-12-27T12:24:49.917Z,19.1
2018-12-27T12:25:40.529Z,19.1
2018-12-27T12:26:29.475Z,19.1
2018-12-27T12:27:20.415Z,19.1
2018-12-27T12:28:10.696Z,19.1
2018-12-27T12:29:01.086Z,19.1
2018-12-27T12:29:50.787Z,19.1
2018-12-27T12:30:40.591Z,19.1